Casper-Natrona County International Airport
KCPR : now visible

Airfield :











YOU CAN JOIN US ON...

 
LOGIN :

Register | Disclaimer

   EN    FR    IT 

 









Legend :    VFR   Marginal VFR   IFR   Intensive IFR   Very Intensive IFR
Visi :
Ceiling :
>= 8 km
>= 3000ft
5 to 8 km
1000 to 3000 ft
1500m to 5 km
500 to 1000 ft
800 to 1500m
200 to 500 ft
< 800m
< 200 ft
Symbols :   Thunderstorms  Fog  Heavy snow  Heavy precipitations  Wind > 20 kt






- Airport Elevation : 5350 ft
- IATA code : CPR


KCPR - Casper-Natrona County International

CURRENT METAR :
  • 261753Z 25005KT 10SM CLR 21/01 A3000 RMK AO2 SLP126 T02060011 10206 20033 58007

EXPIRED METARs :
  • 261653Z AUTO 21010G16KT 10SM CLR 19/01 A3003 RMK AO2 SLP123 T01940011
  • 261553Z AUTO 23012KT 10SM CLR 18/00 A3003 RMK AO2 SLP123 T01830000

TAF KCPR
Valid from the 26 at 18:00 until the 27 at 18:00 UTC


261720Z 2618/2718 22012KT P6SM SCT120
FM261900 27010G15KT P6SM FEW150
FM262300 30010KT P6SM FEW200
FM270200 VRB06KT P6SM FEW200
FM271400 33007KT P6SM BKN200
KZDV FIR / North America



MET'MAP, your aeronautical weather chart ! - Copyright ORBIFLY December 2007 - Disclaimer

ORBIFLY MET'MAP TEAM :

Programming & Development : Alexandra Zaïnal
Concept & original design : Baudouin d'Aumeries
Assistance for programming : Marc-Olivier Méhu
Technical & hardware support : Manuel Goepfert

Contact : metmap@orbifly.com




SOURCES & CREDITS :

   NOAA       Earth
Advisory